Terminal Aerodrome Forecast
Issued by NWS

Home | Current Version | Previous Version | Text Only | Print | Product List | Glossary On
Versions: 1 2 3 4 5 6 7 8 9 10 11 12 13 14 15 16 17 18 19 20 21 22 23 24 25 26 27 28 29 30 31 32 33 34
000
FTUS41 KRNK 100521
TAFBCB
TAF
KBCB 100521Z 1006/1106 00000KT 4SM BR SCT001 BKN080
      TEMPO 1006/1009 1/2SM FG BKN001
     FM100900 00000KT 3SM BR VCSH BKN002 BKN150
     FM101400 VRB03KT P6SM SCT025 BKN040
     FM101700 13004KT P6SM VCTS BKN045CB
     FM102300 VRB03KT P6SM SCT040 BKN100=

USA.gov is the U.S. government's official web portal to all federal, state and local government web resources and services.